Time;durP1;ratioP1;P1;durP2;ratioP2;P2;SDS_P1;SDS_P2;PMS_P1;PMS_P2;Temp;Humidity;BMP_temperature;BMP_pressure;BME280_temperature;BME280_humidity;BME280_pressure;Samples;Min_cycle;Max_cycle;Signal;HPM_P1;HPM_P2
2023/01/28 00:01:37;;;;;;;1.00;0.73;;;;;;;1.29;100.00;102632.19;6262009;28;20049;-73
2023/01/28 00:04:40;;;;;;;2.95;1.40;;;;;;;1.24;100.00;102629.53;6259747;28;20042;-72
2023/01/28 00:07:42;;;;;;;1.60;0.88;;;;;;;1.26;100.00;102628.69;6264241;28;20052;-72
2023/01/28 00:10:43;;;;;;;0.73;0.73;;;;;;;1.25;100.00;102626.06;6260293;28;20054;-73
2023/01/28 00:13:44;;;;;;;1.30;0.40;;;;;;;1.22;100.00;102628.59;6261670;28;20466;-73
2023/01/28 00:16:45;;;;;;;0.70;0.70;;;;;;;1.22;100.00;102626.00;6261162;28;20053;-72
2023/01/28 00:19:48;;;;;;;1.45;0.73;;;;;;;1.25;100.00;102628.66;6262784;28;20068;-72
2023/01/28 00:22:50;;;;;;;2.92;0.80;;;;;;;1.26;100.00;102628.69;6262325;28;20057;-74
2023/01/28 00:25:51;;;;;;;1.05;0.95;;;;;;;1.29;100.00;102634.78;6264388;28;20051;-73
2023/01/28 00:28:53;;;;;;;1.25;0.50;;;;;;;1.20;100.00;102620.81;6261764;28;20431;-72
2023/01/28 00:31:54;;;;;;;7.03;0.80;;;;;;;1.21;100.00;102619.97;6254361;28;20049;-73
2023/01/28 00:34:57;;;;;;;6.63;0.65;;;;;;;1.24;100.00;102632.09;6254291;28;20502;-72
2023/01/28 00:37:59;;;;;;;0.40;0.40;;;;;;;1.25;100.00;102620.91;6254237;28;20057;-72
2023/01/28 00:41:07;;;;;;;0.57;0.50;;;;;;;1.29;100.00;102630.47;6254337;28;20416;-72
2023/01/28 00:44:08;;;;;;;0.50;0.50;;;;;;;1.31;100.00;102625.28;6253911;28;20045;-72
2023/01/28 00:47:10;;;;;;;5.35;1.30;;;;;;;1.32;100.00;102629.63;6252864;28;20072;-72
2023/01/28 00:50:12;;;;;;;1.65;0.90;;;;;;;1.30;100.00;102621.84;6253390;28;20436;-72
2023/01/28 00:53:14;;;;;;;3.72;0.75;;;;;;;1.21;100.00;102617.38;6253810;28;20435;-74
2023/01/28 00:56:17;;;;;;;0.52;0.50;;;;;;;1.23;100.00;102614.84;6254479;28;20060;-72
2023/01/28 00:59:18;;;;;;;0.80;0.63;;;;;;;1.27;100.00;102614.91;6253536;28;20363;-72
2023/01/28 01:02:19;;;;;;;1.40;0.77;;;;;;;1.28;100.00;102623.53;6254140;28;20049;-72
2023/01/28 01:05:22;;;;;;;2.58;1.02;;;;;;;1.25;100.00;102628.66;6253651;28;20048;-72
2023/01/28 01:08:33;;;;;;;4.95;0.90;;;;;;;1.27;100.00;102627.84;6253861;28;20450;-74
2023/01/28 01:11:35;;;;;;;3.35;1.25;;;;;;;1.23;100.00;102628.66;6253646;28;20061;-72
2023/01/28 01:14:36;;;;;;;7.43;1.25;;;;;;;1.27;100.00;102622.69;6253660;28;20076;-73
2023/01/28 01:17:37;;;;;;;1.40;0.80;;;;;;;1.29;100.00;102621.81;6253329;28;20366;-72
2023/01/28 01:20:44;;;;;;;2.22;1.17;;;;;;;1.24;100.00;102619.16;6253364;28;20381;-72
2023/01/28 01:23:46;;;;;;;0.75;0.70;;;;;;;1.20;100.00;102623.41;6253374;28;20424;-72
2023/01/28 01:26:48;;;;;;;1.55;0.85;;;;;;;1.13;100.00;102625.88;6268861;28;20041;-73
2023/01/28 01:29:49;;;;;;;0.70;0.60;;;;;;;1.18;100.00;102622.53;6269231;28;20045;-72
2023/01/28 01:32:51;;;;;;;1.13;0.90;;;;;;;1.17;100.00;102625.94;6277586;28;20060;-73
2023/01/28 01:35:54;;;;;;;1.42;0.68;;;;;;;1.14;100.00;102618.16;6269667;28;20068;-72
2023/01/28 01:38:55;;;;;;;1.23;1.00;;;;;;;1.16;100.00;102629.38;6277605;28;20048;-72
2023/01/28 01:45:02;;;;;;;2.47;0.60;;;;;;;1.24;100.00;102624.34;6225407;28;20057;-72
2023/01/28 01:48:10;;;;;;;2.28;0.68;;;;;;;1.27;100.00;102633.03;6228333;28;20359;-71
2023/01/28 01:51:17;;;;;;;2.00;0.80;;;;;;;1.23;100.00;102628.66;6227904;28;20344;-72
2023/01/28 01:54:21;;;;;;;3.40;1.08;;;;;;;1.21;100.00;102629.47;6228135;28;20446;-72
2023/01/28 01:57:29;;;;;;;1.63;0.80;;;;;;;1.25;100.00;102637.31;6227853;28;20057;-72
2023/01/28 02:00:30;;;;;;;0.80;0.50;;;;;;;1.27;100.00;102635.63;6228025;28;20049;-72
2023/01/28 02:03:41;;;;;;;1.58;0.60;;;;;;;1.26;100.00;102633.84;6227696;28;20056;-72
2023/01/28 02:06:45;;;;;;;2.92;0.88;;;;;;;1.24;100.00;102627.78;6227917;28;20045;-71
2023/01/28 02:09:46;;;;;;;1.13;0.85;;;;;;;1.27;100.00;102642.50;6227794;28;20057;-72
2023/01/28 02:12:53;;;;;;;1.63;0.52;;;;;;;1.29;100.00;102635.63;6227581;28;20468;-72
2023/01/28 02:15:55;;;;;;;1.50;0.80;;;;;;;1.23;100.00;102636.41;6227666;28;20046;-72
2023/01/28 02:18:57;;;;;;;2.08;1.02;;;;;;;1.18;100.00;102635.47;6227403;28;20349;-72
2023/01/28 02:22:14;;;;;;;0.77;0.77;;;;;;;1.20;100.00;102641.53;6227434;28;20428;-72
2023/01/28 02:25:54;;;;;;;8.00;1.15;;;;;;;1.21;100.00;102642.41;6227252;28;20077;-72
2023/01/28 02:29:03;;;;;;;1.30;0.70;;;;;;;1.18;100.00;102634.56;6212213;28;20053;-72
2023/01/28 02:32:12;;;;;;;0.82;0.65;;;;;;;1.17;100.00;102630.25;6227308;28;20056;-72
2023/01/28 02:35:18;;;;;;;0.35;0.32;;;;;;;1.13;100.00;102621.56;6227208;28;20049;-72
2023/01/28 02:38:25;;;;;;;3.38;0.90;;;;;;;1.16;100.00;102631.97;6227288;28;20060;-72
2023/01/28 02:41:31;;;;;;;2.13;0.70;;;;;;;1.19;100.00;102631.16;6226977;28;20456;-71
2023/01/28 02:44:34;;;;;;;0.75;0.60;;;;;;;1.21;100.00;102626.88;6226883;28;20050;-72
2023/01/28 02:51:02;;;;;;;3.00;0.60;;;;;;;1.23;100.00;102620.00;6227057;28;20050;-72
2023/01/28 02:54:11;;;;;;;1.48;1.05;;;;;;;1.14;100.00;102619.88;6226729;28;20462;-71
2023/01/28 02:57:25;;;;;;;0.68;0.68;;;;;;;1.17;100.00;102614.72;6226924;28;20049;-72
2023/01/28 03:00:34;;;;;;;0.52;0.52;;;;;;;1.19;100.00;102619.09;6226662;28;20348;-72
2023/01/28 03:03:44;;;;;;;0.50;0.50;;;;;;;1.21;100.00;102619.97;6226385;28;20593;-72
2023/01/28 03:06:50;;;;;;;6.75;0.50;;;;;;;1.18;100.00;102617.34;6226977;28;20056;-72
2023/01/28 03:09:51;;;;;;;5.60;1.42;;;;;;;1.17;100.00;102610.41;6226188;28;20447;-71
2023/01/28 03:39:45;;;;;;;0.93;0.88;;;;;;;0.97;100.00;102617.00;6238763;28;20049;-72
2023/01/28 03:42:47;;;;;;;6.70;0.65;;;;;;;0.99;100.00;102616.16;6241261;28;20344;-72
2023/01/28 03:45:50;;;;;;;2.90;0.77;;;;;;;0.98;100.00;102619.59;6248566;28;20057;-72
2023/01/28 03:48:53;;;;;;;0.93;0.90;;;;;;;1.01;100.00;102619.66;6225913;28;20141;-72
2023/01/28 03:51:54;;;;;;;1.00;0.85;;;;;;;0.98;100.00;102626.50;6225876;28;20424;-72
2023/01/28 03:54:56;;;;;;;2.97;0.73;;;;;;;0.96;100.00;102626.50;6234304;28;20060;-72
2023/01/28 03:57:57;;;;;;;0.95;0.90;;;;;;;0.98;100.00;102618.75;6251267;28;20343;-72
2023/01/28 04:00:59;;;;;;;0.50;0.50;;;;;;;0.98;100.00;102624.78;6255299;28;20049;-72
2023/01/28 04:04:01;;;;;;;2.47;0.80;;;;;;;0.97;100.00;102624.78;6255241;28;20052;-72
2023/01/28 04:07:03;;;;;;;1.70;0.95;;;;;;;0.95;100.00;102635.09;6255438;28;20085;-72
2023/01/28 04:10:07;;;;;;;2.50;1.35;;;;;;;0.91;100.00;102637.59;6254865;28;20463;-72
2023/01/28 04:13:08;;;;;;;2.67;0.70;;;;;;;0.97;100.00;102648.06;6255238;28;20135;-71
2023/01/28 04:16:10;;;;;;;1.10;1.00;;;;;;;0.98;100.00;102654.97;6253030;28;20065;-72
2023/01/28 04:19:13;;;;;;;1.23;0.90;;;;;;;0.90;100.00;102657.44;6241220;28;20057;-72
2023/01/28 04:22:14;;;;;;;0.90;0.80;;;;;;;0.88;100.00;102650.50;6254656;28;20048;-72
2023/01/28 04:25:16;;;;;;;2.13;1.10;;;;;;;0.91;100.00;102647.94;6254849;28;20049;-72
2023/01/28 04:28:17;;;;;;;4.30;0.75;;;;;;;0.91;100.00;102654.03;6254729;28;20053;-72
2023/01/28 04:31:18;;;;;;;1.05;0.80;;;;;;;0.96;100.00;102656.69;6254717;28;20045;-72
2023/01/28 04:34:21;;;;;;;0.73;0.70;;;;;;;0.98;100.00;102657.56;6254268;28;20374;-72
2023/01/28 04:37:22;;;;;;;1.38;0.95;;;;;;;0.98;100.00;102648.09;6254738;28;20046;-72
2023/01/28 04:40:24;;;;;;;0.70;0.70;;;;;;;0.96;100.00;102648.91;6254332;28;20699;-71
2023/01/28 04:43:25;;;;;;;1.35;0.88;;;;;;;0.96;100.00;102633.38;6254238;28;20468;-72
2023/01/28 04:46:26;;;;;;;1.63;0.73;;;;;;;0.97;100.00;102638.56;6254515;28;20049;-72
2023/01/28 04:49:29;;;;;;;1.60;1.08;;;;;;;0.95;100.00;102652.31;6254509;28;20053;-72
2023/01/28 04:52:30;;;;;;;7.85;1.00;;;;;;;0.96;100.00;102644.59;6253942;28;20506;-71
2023/01/28 04:55:32;;;;;;;1.35;1.00;;;;;;;0.98;100.00;102642.03;6254278;28;20053;-72
2023/01/28 04:58:33;;;;;;;1.35;1.00;;;;;;;0.98;100.00;102647.22;6253900;28;20351;-71
2023/01/28 05:01:34;;;;;;;2.92;1.20;;;;;;;0.99;100.00;102634.28;6253968;28;20320;-72
2023/01/28 05:04:37;;;;;;;2.20;0.82;;;;;;;1.00;100.00;102642.94;6253583;28;20355;-71
2023/01/28 05:07:38;;;;;;;1.13;0.65;;;;;;;0.97;100.00;102637.72;6254177;28;20052;-72
2023/01/28 05:10:40;;;;;;;5.63;1.35;;;;;;;0.93;100.00;102638.50;6253134;28;20053;-72
2023/01/28 05:13:41;;;;;;;1.92;1.00;;;;;;;0.90;100.00;102643.63;6253446;28;20053;-72
2023/01/28 05:16:42;;;;;;;2.17;1.15;;;;;;;0.85;100.00;102650.44;6253772;28;20393;-72
2023/01/28 05:19:45;;;;;;;2.45;1.13;;;;;;;0.86;100.00;102639.22;6253498;28;20064;-71
2023/01/28 05:22:47;;;;;;;0.68;0.68;;;;;;;0.84;100.00;102638.34;6253652;28;20354;-71
2023/01/28 05:25:48;;;;;;;5.38;1.40;;;;;;;0.84;100.00;102639.22;6253068;28;20056;-72
2023/01/28 05:28:50;;;;;;;0.73;0.73;;;;;;;0.85;100.00;102638.38;6253708;28;20057;-72
2023/01/28 05:31:51;;;;;;;1.25;0.85;;;;;;;0.88;100.00;102635.84;6236294;28;20073;-72
2023/01/28 05:34:54;;;;;;;1.38;0.90;;;;;;;0.93;100.00;102638.50;6228756;28;20050;-72
2023/01/28 05:37:55;;;;;;;1.10;0.80;;;;;;;0.90;100.00;102628.09;6228566;28;20060;-72
2023/01/28 05:40:56;;;;;;;1.35;1.08;;;;;;;0.88;100.00;102625.47;6228654;28;20049;-72
2023/01/28 05:43:58;;;;;;;1.63;0.98;;;;;;;0.85;100.00;102634.91;6227984;28;20077;-72
2023/01/28 05:46:59;;;;;;;1.10;0.82;;;;;;;0.87;100.00;102631.50;6228616;28;20056;-72
2023/01/28 05:50:02;;;;;;;2.33;1.00;;;;;;;0.88;100.00;102632.38;6228092;28;20060;-72
2023/01/28 05:53:05;;;;;;;1.17;1.08;;;;;;;0.91;100.00;102642.75;6227826;28;20417;-71
2023/01/28 05:56:07;;;;;;;0.90;0.90;;;;;;;0.90;100.00;102641.91;6227800;28;20042;-72
2023/01/28 05:59:12;;;;;;;0.63;0.63;;;;;;;0.87;100.00;102647.03;6228072;28;20064;-72
2023/01/28 06:02:13;;;;;;;1.15;0.68;;;;;;;0.83;100.00;102644.38;6226068;28;20177;-72
2023/01/28 06:05:16;;;;;;;5.68;1.33;;;;;;;0.76;100.00;102633.03;6226885;28;20562;-75
2023/01/28 06:08:17;;;;;;;0.80;0.80;;;;;;;0.80;100.00;102626.19;6228219;28;20053;-75
2023/01/28 06:11:19;;;;;;;7.95;3.17;;;;;;;0.80;100.00;102621.88;6227561;28;20046;-75
2023/01/28 06:14:20;;;;;;;3.35;1.77;;;;;;;0.81;100.00;102615.00;6227806;28;20061;-75
2023/01/28 06:17:21;;;;;;;2.33;1.23;;;;;;;0.79;100.00;102616.69;6226171;28;20060;-72
2023/01/28 06:20:24;;;;;;;1.60;1.10;;;;;;;0.78;100.00;102615.81;6225384;28;20049;-72
2023/01/28 06:23:25;;;;;;;3.47;1.00;;;;;;;0.78;100.00;102614.97;6225658;28;20042;-72
2023/01/28 06:26:27;;;;;;;1.52;1.00;;;;;;;0.80;100.00;102621.88;6225910;28;20330;-72
2023/01/28 06:29:28;;;;;;;4.70;0.90;;;;;;;0.81;100.00;102622.75;6225866;28;20436;-72
2023/01/28 06:32:30;;;;;;;2.63;0.88;;;;;;;0.81;100.00;102627.94;6225858;28;20042;-75
2023/01/28 06:35:32;;;;;;;1.75;1.15;;;;;;;0.79;100.00;102630.50;6225364;28;20107;-75
2023/01/28 06:38:34;;;;;;;0.80;0.80;;;;;;;0.82;100.00;102640.03;6225688;28;20045;-75
2023/01/28 06:41:35;;;;;;;1.50;0.68;;;;;;;0.82;100.00;102645.19;6225448;28;20048;-72
2023/01/28 06:44:36;;;;;;;1.65;1.25;;;;;;;0.84;100.00;102652.16;6202299;28;20050;-72
2023/01/28 06:47:39;;;;;;;5.45;1.10;;;;;;;0.78;100.00;102646.00;6203042;28;20560;-71
2023/01/28 06:50:41;;;;;;;1.48;1.15;;;;;;;0.76;100.00;102644.25;6202428;28;20060;-72
2023/01/28 06:53:42;;;;;;;1.38;1.10;;;;;;;0.75;100.00;102639.91;6202597;28;20054;-72
2023/01/28 06:56:44;;;;;;;1.85;1.13;;;;;;;0.67;100.00;102640.63;6202438;28;20054;-72
2023/01/28 06:59:45;;;;;;;1.77;1.20;;;;;;;0.61;100.00;102640.53;6202702;28;20054;-71
2023/01/28 07:02:46;;;;;;;1.60;1.02;;;;;;;0.60;100.00;102641.38;6202257;28;20066;-72
2023/01/28 07:05:49;;;;;;;2.22;0.93;;;;;;;0.69;100.00;102636.38;6202263;28;20360;-72
2023/01/28 07:08:50;;;;;;;1.05;0.85;;;;;;;0.70;100.00;102633.78;6202123;28;20691;-72
2023/01/28 07:11:52;;;;;;;2.03;0.93;;;;;;;0.64;100.00;102646.63;6202136;28;20046;-72
2023/01/28 07:14:53;;;;;;;1.83;1.10;;;;;;;0.64;100.00;102656.13;6201924;28;20054;-72
2023/01/28 07:17:54;;;;;;;1.55;0.95;;;;;;;0.66;100.00;102651.81;6202080;28;20352;-72
2023/01/28 07:20:57;;;;;;;2.88;1.63;;;;;;;0.66;100.00;102649.25;6211451;28;20356;-72
2023/01/28 07:23:59;;;;;;;1.92;1.15;;;;;;;0.68;100.00;102640.69;6225571;28;20049;-72
2023/01/28 07:27:00;;;;;;;2.83;1.50;;;;;;;0.66;100.00;102633.72;6227320;28;20447;-72
2023/01/28 07:30:02;;;;;;;1.85;1.33;;;;;;;0.72;100.00;102641.56;6228939;28;20046;-71
2023/01/28 07:33:03;;;;;;;2.78;1.23;;;;;;;0.68;100.00;102645.84;6229640;28;20058;-72
2023/01/28 07:36:07;;;;;;;2.40;1.67;;;;;;;0.70;100.00;102646.72;6225622;28;20050;-71
2023/01/28 07:39:08;;;;;;;2.03;1.38;;;;;;;0.70;100.00;102654.50;6236693;28;20055;-72
2023/01/28 07:42:10;;;;;;;2.50;1.25;;;;;;;0.68;100.00;102656.19;6250020;28;20049;-72
2023/01/28 07:45:11;;;;;;;2.35;1.52;;;;;;;0.62;100.00;102652.63;6250995;23;20317;-78
2023/01/28 07:48:13;;;;;;;4.47;1.65;;;;;;;0.55;99.52;102663.72;6225964;28;20452;-78
2023/01/28 07:51:16;;;;;;;1.45;1.05;;;;;;;0.52;99.41;102672.25;6225911;28;20050;-76
2023/01/28 07:54:17;;;;;;;2.17;1.35;;;;;;;0.45;97.99;102681.59;6229197;28;20456;-76
2023/01/28 07:57:22;;;;;;;3.65;1.33;;;;;;;0.52;99.95;102673.97;6242138;28;20049;-77
2023/01/28 08:00:25;;;;;;;2.17;1.55;;;;;;;0.53;100.00;102684.34;6250301;28;20184;-77
2023/01/28 08:03:27;;;;;;;1.95;1.50;;;;;;;0.59;100.00;102693.94;6250073;28;20364;-77
2023/01/28 08:06:30;;;;;;;2.17;1.65;;;;;;;0.60;100.00;102699.16;6250360;28;20046;-78
2023/01/28 08:09:33;;;;;;;1.83;1.33;;;;;;;0.56;100.00;102712.88;6250720;28;20046;-78
2023/01/28 08:12:34;;;;;;;3.22;1.38;;;;;;;0.62;100.00;102709.53;6249801;28;20049;-77
2023/01/28 08:15:35;;;;;;;1.42;1.33;;;;;;;0.64;100.00;102707.84;6250186;28;20049;-77
2023/01/28 08:18:37;;;;;;;2.35;1.85;;;;;;;0.68;100.00;102707.03;6249962;28;20347;-77
2023/01/28 08:21:39;;;;;;;1.52;1.40;;;;;;;0.59;98.64;102709.47;6244154;28;20046;-77
2023/01/28 08:24:41;;;;;;;3.53;1.48;;;;;;;0.52;97.54;102712.78;6241484;28;20049;-76
2023/01/28 08:27:42;;;;;;;4.97;2.13;;;;;;;0.48;100.00;102710.13;6225551;28;20348;-77
2023/01/28 08:30:44;;;;;;;2.40;1.75;;;;;;;0.50;100.00;102723.09;6225444;28;20065;-76
2023/01/28 08:33:45;;;;;;;2.53;1.30;;;;;;;0.57;98.75;102734.44;6225592;28;20049;-76
2023/01/28 08:36:48;;;;;;;4.55;1.40;;;;;;;0.55;99.25;102743.91;6225373;28;20067;-78
2023/01/28 08:39:49;;;;;;;5.93;1.55;;;;;;;0.53;100.00;102743.84;6225651;28;20050;-79
2023/01/28 08:42:52;;;;;;;2.28;1.42;;;;;;;0.49;98.14;102754.97;6224960;28;20356;-78
2023/01/28 08:45:53;;;;;;;2.58;1.80;;;;;;;0.42;99.29;102750.53;6228294;28;20428;-76
2023/01/28 08:48:55;;;;;;;1.98;1.60;;;;;;;0.33;98.59;102758.09;6229831;28;20061;-77
2023/01/28 08:51:57;;;;;;;3.28;1.77;;;;;;;0.39;100.00;102740.09;6229209;28;20053;-77
2023/01/28 08:54:58;;;;;;;5.43;2.70;;;;;;;0.43;100.00;102757.44;6229528;28;20057;-77
2023/01/28 08:58:02;;;;;;;2.00;1.60;;;;;;;0.50;100.00;102761.91;6229221;28;20053;-77
2023/01/28 09:01:04;;;;;;;1.70;1.55;;;;;;;0.48;99.17;102768.75;6228872;28;20052;-76
2023/01/28 09:04:06;;;;;;;4.75;2.13;;;;;;;0.45;100.00;102751.44;6227403;28;20056;-77
2023/01/28 09:07:09;;;;;;;2.67;2.03;;;;;;;0.52;100.00;102759.34;6227381;28;20343;-76
2023/01/28 09:10:11;;;;;;;3.40;2.90;;;;;;;0.57;100.00;102758.59;6227465;28;20046;-77
2023/01/28 09:13:14;;;;;;;5.57;3.38;;;;;;;0.47;100.00;102754.94;6227712;28;20113;-79
2023/01/28 09:16:15;;;;;;;4.28;2.90;;;;;;;0.56;99.82;102764.59;6227944;28;20054;-77
2023/01/28 09:19:17;;;;;;;4.25;3.55;;;;;;;0.53;99.73;102767.13;6228296;28;20052;-77
2023/01/28 09:22:19;;;;;;;6.18;3.60;;;;;;;0.53;100.00;102771.44;6228001;28;20096;-79
2023/01/28 09:25:21;;;;;;;7.97;4.50;;;;;;;0.63;100.00;102789.75;6227477;28;20064;-77
2023/01/28 09:28:22;;;;;;;3.65;2.35;;;;;;;0.62;100.00;102795.78;6227935;28;20050;-78
2023/01/28 09:31:24;;;;;;;4.22;2.60;;;;;;;0.52;100.00;102780.91;6227371;28;20468;-77
2023/01/28 09:34:26;;;;;;;6.50;3.00;;;;;;;0.50;100.00;102782.59;6227749;28;20129;-79
2023/01/28 09:37:28;;;;;;;7.47;3.30;;;;;;;0.57;99.04;102773.25;6227364;28;20058;-79
2023/01/28 09:40:36;;;;;;;6.18;2.80;;;;;;;0.54;100.00;102778.34;6227374;28;20053;-78
2023/01/28 09:43:58;;;;;;;4.90;3.30;;;;;;;0.60;100.00;102778.50;6226859;28;20333;-80
2023/01/28 09:47:02;;;;;;;6.57;3.85;;;;;;;0.46;100.00;102778.19;6227462;28;20050;-78
2023/01/28 09:50:09;;;;;;;5.60;3.78;;;;;;;0.49;98.47;102765.31;6225839;28;20050;-79
2023/01/28 09:53:18;;;;;;;5.20;3.50;;;;;;;0.49;99.93;102776.53;6224069;28;20057;-76
2023/01/28 09:56:25;;;;;;;3.92;3.10;;;;;;;0.59;100.00;102775.03;6227251;28;20054;-76
2023/01/28 09:59:35;;;;;;;4.32;2.63;;;;;;;0.63;99.71;102775.94;6227892;28;20364;-78
2023/01/28 10:02:53;;;;;;;4.47;2.97;;;;;;;0.41;98.80;102778.09;6227626;28;20050;-77
2023/01/28 10:06:04;;;;;;;4.25;2.22;;;;;;;0.54;98.09;102802.50;6227632;28;20069;-77
2023/01/28 10:09:21;;;;;;;4.38;2.33;;;;;;;0.48;98.70;102815.31;6227755;28;20049;-77
2023/01/28 10:12:47;;;;;;;4.40;2.75;;;;;;;0.50;98.79;102817.09;6228376;28;20451;-75
2023/01/28 10:16:20;;;;;;;2.13;1.65;;;;;;;0.60;100.00;102813.00;6224860;28;20050;-77
2023/01/28 10:19:27;;;;;;;5.93;2.33;;;;;;;0.69;98.73;102817.50;6227303;28;20060;-78
2023/01/28 10:22:31;;;;;;;4.20;2.17;;;;;;;0.68;99.35;102813.13;6227347;28;20467;-77
2023/01/28 10:25:34;;;;;;;4.53;2.55;;;;;;;0.64;97.92;102811.34;6227197;28;20435;-77
2023/01/28 10:28:36;;;;;;;2.75;2.22;;;;;;;0.56;97.64;102807.72;6227261;28;20038;-77
2023/01/28 10:31:44;;;;;;;2.17;1.98;;;;;;;0.57;100.00;102806.88;6227374;28;20424;-74
2023/01/28 10:34:45;;;;;;;3.15;1.80;;;;;;;0.70;100.00;102799.41;6226757;28;20045;-74
2023/01/28 10:37:47;;;;;;;6.18;2.42;;;;;;;0.80;99.94;102794.41;6227303;28;20049;-74
2023/01/28 10:40:51;;;;;;;2.97;2.10;;;;;;;0.73;98.65;102790.84;6226871;28;20049;-73
2023/01/28 10:43:52;;;;;;;6.03;2.38;;;;;;;0.78;96.72;102786.63;6226606;28;20046;-73
2023/01/28 10:46:57;;;;;;;3.17;2.00;;;;;;;0.68;98.79;102776.91;6226936;28;20081;-74
2023/01/28 10:50:01;;;;;;;3.22;2.28;;;;;;;0.69;98.25;102771.78;6226314;28;20092;-73
2023/01/28 10:53:04;;;;;;;3.30;2.50;;;;;;;0.63;96.69;102766.47;6225590;28;20352;-74
2023/01/28 10:56:09;;;;;;;4.43;3.00;;;;;;;0.65;98.27;102769.97;6202390;28;20192;-73
2023/01/28 10:59:20;;;;;;;2.53;2.28;;;;;;;0.81;95.82;102754.72;6212149;28;20359;-74
2023/01/28 11:02:31;;;;;;;5.30;2.85;;;;;;;0.81;94.52;102753.00;6226544;28;20359;-73
2023/01/28 11:05:32;;;;;;;4.72;3.20;;;;;;;0.91;98.18;102751.47;6226228;28;20054;-74
2023/01/28 11:08:43;;;;;;;4.80;2.88;;;;;;;1.13;100.00;102755.34;6219978;28;20058;-74
2023/01/28 11:11:46;;;;;;;4.55;2.85;;;;;;;1.29;100.00;102759.94;6227315;28;20073;-74
2023/01/28 11:14:51;;;;;;;6.07;2.60;;;;;;;1.44;97.56;102754.16;6227511;28;20046;-74
2023/01/28 11:17:57;;;;;;;4.35;2.95;;;;;;;1.29;95.53;102735.78;6226221;28;20483;-73
2023/01/28 11:21:00;;;;;;;8.52;2.70;;;;;;;1.29;96.22;102734.06;6225813;28;20333;-73
2023/01/28 11:24:04;;;;;;;3.80;2.95;;;;;;;1.38;97.47;102734.22;6225713;28;20137;-74
2023/01/28 11:27:16;;;;;;;6.45;2.65;;;;;;;1.49;98.24;102735.25;6226421;28;20265;-72
2023/01/28 11:30:23;;;;;;;5.57;2.88;;;;;;;1.46;95.25;102729.16;6225673;28;20050;-73
2023/01/28 11:33:32;;;;;;;4.07;3.13;;;;;;;1.49;98.02;102735.25;6221738;28;20444;-74
2023/01/28 11:36:34;;;;;;;9.27;3.92;;;;;;;1.28;100.00;102719.38;6232935;28;20046;-73
2023/01/28 11:39:36;;;;;;;6.55;3.75;;;;;;;1.39;100.00;102707.44;6225698;28;20061;-73
2023/01/28 11:42:38;;;;;;;4.55;2.78;;;;;;;1.47;100.00;102692.91;6225839;28;20045;-72
2023/01/28 11:45:49;;;;;;;4.50;2.65;;;;;;;1.50;100.00;102684.31;6221703;28;20049;-73
2023/01/28 11:48:56;;;;;;;8.77;3.63;;;;;;;1.51;100.00;102683.47;6225273;28;20447;-73
2023/01/28 11:52:06;;;;;;;5.18;2.88;;;;;;;1.44;99.95;102660.91;6223597;28;20053;-73
2023/01/28 11:55:23;;;;;;;9.57;3.60;;;;;;;1.56;100.00;102644.66;6225119;28;20057;-73
2023/01/28 11:58:34;;;;;;;5.15;3.35;;;;;;;1.61;100.00;102637.84;6226704;28;20045;-74
2023/01/28 12:01:47;;;;;;;6.55;3.13;;;;;;;1.71;100.00;102643.16;6225573;28;20057;-74
2023/01/28 12:05:06;;;;;;;7.68;3.20;;;;;;;1.65;99.06;102642.22;6225061;28;20038;-72
2023/01/28 12:08:15;;;;;;;4.65;2.83;;;;;;;1.71;100.00;102630.19;6225592;28;20571;-72
2023/01/28 12:15:03;;;;;;;7.55;3.20;;;;;;;1.76;100.00;102625.06;6224339;28;20046;-73
2023/01/28 12:18:17;;;;;;;6.70;3.55;;;;;;;2.00;100.00;102629.72;6225648;28;20057;-72
2023/01/28 12:21:30;;;;;;;6.07;3.55;;;;;;;2.22;100.00;102628.22;6229649;28;20364;-73
2023/01/28 12:24:58;;;;;;;4.43;3.25;;;;;;;2.15;98.66;102629.91;6229045;28;20053;-73
2023/01/28 12:28:06;;;;;;;5.38;2.75;;;;;;;1.92;98.50;102608.88;6230485;28;20060;-73
2023/01/28 12:31:26;;;;;;;3.95;2.75;;;;;;;1.89;100.00;102589.81;6229876;28;20046;-72
2023/01/28 12:34:45;;;;;;;8.07;3.17;;;;;;;1.78;100.00;102595.75;6229716;28;20054;-74
2023/01/28 12:37:58;;;;;;;4.68;2.80;;;;;;;1.62;99.96;102605.88;6232161;28;20045;-72
2023/01/28 12:41:04;;;;;;;6.68;3.40;;;;;;;1.75;98.51;102615.56;6229107;28;20053;-74
2023/01/28 12:44:12;;;;;;;5.15;3.25;;;;;;;1.91;96.44;102620.09;6218081;28;20454;-74
2023/01/28 12:47:20;;;;;;;5.40;3.45;;;;;;;1.88;97.50;102616.59;6227608;28;20045;-73
2023/01/28 12:50:27;;;;;;;9.68;3.95;;;;;;;1.99;97.30;102633.16;6228560;28;20052;-75
2023/01/28 12:53:37;;;;;;;6.43;2.92;;;;;;;2.00;97.90;102632.31;6242086;28;20045;-75
2023/01/28 12:56:44;;;;;;;7.38;3.33;;;;;;;2.00;97.63;102640.97;6229933;28;20076;-73
2023/01/28 12:59:49;;;;;;;6.07;2.78;;;;;;;2.11;95.87;102635.91;6229075;28;20050;-73
2023/01/28 13:03:01;;;;;;;4.90;2.88;;;;;;;2.19;96.44;102639.47;6229660;28;20045;-73
2023/01/28 13:06:08;;;;;;;4.07;2.70;;;;;;;2.17;96.93;102633.38;6228859;28;20049;-74
2023/01/28 13:09:16;;;;;;;6.60;3.05;;;;;;;2.07;97.93;102639.31;6222714;28;20053;-73
2023/01/28 13:12:20;;;;;;;4.47;2.78;;;;;;;1.93;97.80;102644.31;6236666;28;20056;-73
2023/01/28 13:15:22;;;;;;;14.02;3.70;;;;;;;1.90;97.02;102640.81;6242542;28;20049;-73
2023/01/28 13:18:44;;;;;;;7.65;3.45;;;;;;;1.83;100.00;102641.59;6239554;28;20059;-75
2023/01/28 13:21:46;;;;;;;7.45;3.10;;;;;;;1.88;99.14;102645.97;6239709;28;20054;-73
2023/01/28 13:24:48;;;;;;;5.57;3.20;;;;;;;1.86;100.00;102639.88;6230762;28;20042;-73
2023/01/28 13:27:57;;;;;;;5.85;3.70;;;;;;;1.84;100.00;102639.00;6216585;28;20050;-72
2023/01/28 13:31:04;;;;;;;5.18;3.53;;;;;;;1.71;99.80;102637.97;6231076;28;20046;-72
2023/01/28 13:34:08;;;;;;;7.38;3.42;;;;;;;1.70;100.00;102632.78;6233889;28;20472;-73
2023/01/28 13:37:24;;;;;;;4.63;3.45;;;;;;;1.75;100.00;102615.56;6234723;28;20334;-72
2023/01/28 13:40:29;;;;;;;6.53;3.60;;;;;;;1.81;100.00;102601.81;6233932;28;20050;-76
2023/01/28 13:43:37;;;;;;;6.03;4.22;;;;;;;1.87;100.00;102583.75;6219715;28;20359;-75
2023/01/28 13:46:38;;;;;;;6.38;3.88;;;;;;;1.88;100.00;102591.53;6249129;23;20444;-76
2023/01/28 13:49:43;;;;;;;10.15;4.05;;;;;;;1.84;100.00;102581.97;6223351;28;20049;-76
2023/01/28 13:52:50;;;;;;;5.90;3.63;;;;;;;1.88;100.00;102580.31;6230222;28;20057;-76
2023/01/28 13:55:57;;;;;;;5.47;3.20;;;;;;;1.99;100.00;102571.78;6227797;28;20057;-76
2023/01/28 13:59:24;;;;;;;9.73;4.75;;;;;;;1.98;100.00;102567.47;6226168;28;20054;-76
2023/01/28 14:02:48;;;;;;;8.00;3.95;;;;;;;1.93;100.00;102565.69;6237137;28;20474;-76
2023/01/28 14:06:36;;;;;;;10.35;4.07;;;;;;;1.86;100.00;102563.84;6243141;28;20121;-76
2023/01/28 14:10:14;;;;;;;8.38;3.97;;;;;;;1.71;100.00;102567.13;6240224;28;20049;-76
2023/01/28 14:13:51;;;;;;;6.78;3.80;;;;;;;1.78;100.00;102587.97;6223237;28;20364;-76
2023/01/28 14:16:57;;;;;;;16.02;4.07;;;;;;;1.74;100.00;102583.59;6224114;28;20047;-76
2023/01/28 14:19:59;;;;;;;11.82;4.00;;;;;;;1.75;100.00;102579.28;6219597;28;20053;-80
2023/01/28 14:23:04;;;;;;;7.65;4.15;;;;;;;1.75;100.00;102595.69;6216852;28;20046;-77
2023/01/28 14:26:18;;;;;;;8.13;3.58;;;;;;;1.81;100.00;102615.63;6223609;28;20226;-77
2023/01/28 14:29:30;;;;;;;9.07;4.47;;;;;;;1.84;100.00;102625.19;6210984;28;20483;-77
2023/01/28 14:32:33;;;;;;;8.57;3.92;;;;;;;1.76;100.00;102630.25;6225094;28;20057;-76
2023/01/28 14:35:38;;;;;;;10.50;4.50;;;;;;;1.75;100.00;102637.16;6224610;28;20049;-76
2023/01/28 14:38:43;;;;;;;7.63;3.85;;;;;;;1.78;100.00;102650.19;6225277;28;20089;-75
2023/01/28 14:41:48;;;;;;;10.32;4.07;;;;;;;1.72;100.00;102644.03;6223655;28;20054;-76
2023/01/28 14:45:01;;;;;;;13.15;4.63;;;;;;;1.55;100.00;102642.94;6226245;28;20050;-76
2023/01/28 14:48:17;;;;;;;7.75;4.10;;;;;;;1.51;100.00;102639.44;6226739;28;20049;-76
2023/01/28 14:51:38;;;;;;;9.70;4.22;;;;;;;1.50;100.00;102648.91;6217757;28;20057;-76
2023/01/28 14:54:51;;;;;;;5.07;3.38;;;;;;;1.59;100.00;102642.09;6231596;28;20049;-76
2023/01/28 14:57:57;;;;;;;10.27;5.03;;;;;;;1.61;100.00;102653.38;6217329;28;20057;-76
2023/01/28 15:00:59;;;;;;;14.80;4.85;;;;;;;1.63;100.00;102656.84;6239297;28;20054;-77